sensor_id;sensor_type;location;lat;lon;timestamp;P1;durP1;ratioP1;P2;durP2;ratioP2
10244;SDS011;5167;52.164;10.530;2022-08-16T00:01:06;14.88;;;10.63;;
10244;SDS011;5167;52.164;10.530;2022-08-16T00:03:32;15.77;;;10.52;;
10244;SDS011;5167;52.164;10.530;2022-08-16T00:05:58;16.88;;;10.88;;
10244;SDS011;5167;52.164;10.530;2022-08-16T00:08:24;16.42;;;10.65;;
10244;SDS011;5167;52.164;10.530;2022-08-16T00:10:50;13.68;;;9.98;;
10244;SDS011;5167;52.164;10.530;2022-08-16T00:13:16;15.80;;;9.75;;
10244;SDS011;5167;52.164;10.530;2022-08-16T00:15:43;17.05;;;10.60;;
10244;SDS011;5167;52.164;10.530;2022-08-16T00:18:11;12.90;;;9.63;;
10244;SDS011;5167;52.164;10.530;2022-08-16T00:20:38;15.25;;;10.00;;
10244;SDS011;5167;52.164;10.530;2022-08-16T00:23:06;17.42;;;10.07;;
10244;SDS011;5167;52.164;10.530;2022-08-16T00:25:32;12.80;;;9.63;;
10244;SDS011;5167;52.164;10.530;2022-08-16T00:27:58;12.63;;;9.27;;
10244;SDS011;5167;52.164;10.530;2022-08-16T00:30:24;15.25;;;10.23;;
10244;SDS011;5167;52.164;10.530;2022-08-16T00:32:51;12.35;;;10.15;;
10244;SDS011;5167;52.164;10.530;2022-08-16T00:35:22;14.15;;;10.50;;
10244;SDS011;5167;52.164;10.530;2022-08-16T00:37:53;14.85;;;10.13;;
10244;SDS011;5167;52.164;10.530;2022-08-16T00:40:23;13.70;;;10.07;;
10244;SDS011;5167;52.164;10.530;2022-08-16T00:42:51;15.68;;;9.15;;
10244;SDS011;5167;52.164;10.530;2022-08-16T00:45:24;15.75;;;10.85;;
10244;SDS011;5167;52.164;10.530;2022-08-16T00:47:59;16.50;;;9.55;;
10244;SDS011;5167;52.164;10.530;2022-08-16T00:50:32;14.20;;;10.15;;
10244;SDS011;5167;52.164;10.530;2022-08-16T00:53:00;15.30;;;10.77;;
10244;SDS011;5167;52.164;10.530;2022-08-16T00:55:25;15.55;;;10.35;;
10244;SDS011;5167;52.164;10.530;2022-08-16T00:57:54;15.07;;;10.32;;
10244;SDS011;5167;52.164;10.530;2022-08-16T01:00:20;16.02;;;10.73;;
10244;SDS011;5167;52.164;10.530;2022-08-16T01:02:50;14.77;;;10.43;;
10244;SDS011;5167;52.164;10.530;2022-08-16T01:05:16;16.33;;;10.25;;
10244;SDS011;5167;52.164;10.530;2022-08-16T01:07:43;15.63;;;10.40;;
10244;SDS011;5167;52.164;10.530;2022-08-16T01:10:10;17.13;;;10.57;;
10244;SDS011;5167;52.164;10.530;2022-08-16T01:12:36;15.45;;;10.35;;
10244;SDS011;5167;52.164;10.530;2022-08-16T01:15:02;15.13;;;10.32;;
10244;SDS011;5167;52.164;10.530;2022-08-16T01:17:29;14.15;;;9.40;;
10244;SDS011;5167;52.164;10.530;2022-08-16T01:19:58;17.65;;;9.90;;
10244;SDS011;5167;52.164;10.530;2022-08-16T01:25:13;14.57;;;9.65;;
10244;SDS011;5167;52.164;10.530;2022-08-16T01:27:53;14.00;;;10.10;;
10244;SDS011;5167;52.164;10.530;2022-08-16T01:30:23;15.00;;;9.40;;
10244;SDS011;5167;52.164;10.530;2022-08-16T01:32:52;15.88;;;9.88;;
10244;SDS011;5167;52.164;10.530;2022-08-16T01:35:20;15.10;;;9.30;;
10244;SDS011;5167;52.164;10.530;2022-08-16T01:37:53;15.02;;;8.98;;
10244;SDS011;5167;52.164;10.530;2022-08-16T01:40:22;15.15;;;10.20;;
10244;SDS011;5167;52.164;10.530;2022-08-16T01:42:52;12.32;;;9.57;;
10244;SDS011;5167;52.164;10.530;2022-08-16T01:45:18;13.40;;;9.95;;
10244;SDS011;5167;52.164;10.530;2022-08-16T01:47:45;16.60;;;9.38;;
10244;SDS011;5167;52.164;10.530;2022-08-16T01:50:13;14.63;;;9.27;;
10244;SDS011;5167;52.164;10.530;2022-08-16T01:52:39;13.45;;;9.13;;
10244;SDS011;5167;52.164;10.530;2022-08-16T01:55:06;15.52;;;9.40;;
10244;SDS011;5167;52.164;10.530;2022-08-16T01:57:32;14.13;;;9.30;;
10244;SDS011;5167;52.164;10.530;2022-08-16T01:59:58;14.38;;;9.00;;
10244;SDS011;5167;52.164;10.530;2022-08-16T02:02:24;14.82;;;8.80;;
10244;SDS011;5167;52.164;10.530;2022-08-16T02:04:51;10.82;;;8.52;;
10244;SDS011;5167;52.164;10.530;2022-08-16T02:07:17;15.82;;;9.30;;
10244;SDS011;5167;52.164;10.530;2022-08-16T02:09:43;13.50;;;7.97;;
10244;SDS011;5167;52.164;10.530;2022-08-16T02:12:11;15.13;;;9.00;;
10244;SDS011;5167;52.164;10.530;2022-08-16T02:14:37;12.57;;;8.27;;
10244;SDS011;5167;52.164;10.530;2022-08-16T02:17:04;12.68;;;8.80;;
10244;SDS011;5167;52.164;10.530;2022-08-16T02:19:33;14.63;;;8.35;;
10244;SDS011;5167;52.164;10.530;2022-08-16T02:22:01;11.20;;;9.07;;
10244;SDS011;5167;52.164;10.530;2022-08-16T02:24:28;12.90;;;8.23;;
10244;SDS011;5167;52.164;10.530;2022-08-16T02:26:54;13.60;;;9.43;;
10244;SDS011;5167;52.164;10.530;2022-08-16T02:29:20;13.90;;;8.60;;
10244;SDS011;5167;52.164;10.530;2022-08-16T02:31:47;10.55;;;7.95;;
10244;SDS011;5167;52.164;10.530;2022-08-16T02:34:14;11.18;;;7.45;;
10244;SDS011;5167;52.164;10.530;2022-08-16T02:36:40;10.63;;;7.90;;
10244;SDS011;5167;52.164;10.530;2022-08-16T02:39:07;10.95;;;8.23;;
10244;SDS011;5167;52.164;10.530;2022-08-16T02:41:34;10.98;;;7.80;;
10244;SDS011;5167;52.164;10.530;2022-08-16T02:44:01;11.13;;;7.45;;
10244;SDS011;5167;52.164;10.530;2022-08-16T02:46:27;10.63;;;7.20;;
10244;SDS011;5167;52.164;10.530;2022-08-16T02:48:52;12.40;;;7.90;;
10244;SDS011;5167;52.164;10.530;2022-08-16T02:51:18;12.43;;;8.18;;
10244;SDS011;5167;52.164;10.530;2022-08-16T02:53:45;12.85;;;8.02;;
10244;SDS011;5167;52.164;10.530;2022-08-16T02:56:13;11.20;;;7.25;;
10244;SDS011;5167;52.164;10.530;2022-08-16T02:58:40;13.88;;;7.80;;
10244;SDS011;5167;52.164;10.530;2022-08-16T03:01:06;10.95;;;7.13;;
10244;SDS011;5167;52.164;10.530;2022-08-16T03:03:33;12.80;;;7.78;;
10244;SDS011;5167;52.164;10.530;2022-08-16T03:06:00;9.48;;;7.82;;
10244;SDS011;5167;52.164;10.530;2022-08-16T03:08:26;12.93;;;7.80;;
10244;SDS011;5167;52.164;10.530;2022-08-16T03:10:51;10.68;;;7.10;;
10244;SDS011;5167;52.164;10.530;2022-08-16T03:13:17;10.68;;;7.70;;
10244;SDS011;5167;52.164;10.530;2022-08-16T03:15:44;10.63;;;7.68;;
10244;SDS011;5167;52.164;10.530;2022-08-16T03:18:11;11.38;;;7.57;;
10244;SDS011;5167;52.164;10.530;2022-08-16T03:20:37;9.07;;;7.22;;
10244;SDS011;5167;52.164;10.530;2022-08-16T03:23:03;14.52;;;7.85;;
10244;SDS011;5167;52.164;10.530;2022-08-16T03:25:29;10.43;;;8.02;;
10244;SDS011;5167;52.164;10.530;2022-08-16T03:27:55;9.55;;;7.25;;
10244;SDS011;5167;52.164;10.530;2022-08-16T03:30:22;10.80;;;7.45;;
10244;SDS011;5167;52.164;10.530;2022-08-16T03:32:50;12.45;;;7.85;;
10244;SDS011;5167;52.164;10.530;2022-08-16T03:35:16;9.70;;;7.15;;
10244;SDS011;5167;52.164;10.530;2022-08-16T03:37:43;11.88;;;7.20;;
10244;SDS011;5167;52.164;10.530;2022-08-16T03:40:10;15.63;;;7.22;;
10244;SDS011;5167;52.164;10.530;2022-08-16T03:42:37;10.95;;;7.00;;
10244;SDS011;5167;52.164;10.530;2022-08-16T03:45:03;10.20;;;6.88;;
10244;SDS011;5167;52.164;10.530;2022-08-16T03:47:30;9.07;;;7.22;;
10244;SDS011;5167;52.164;10.530;2022-08-16T03:49:55;12.27;;;7.65;;
10244;SDS011;5167;52.164;10.530;2022-08-16T03:52:22;11.60;;;7.13;;
10244;SDS011;5167;52.164;10.530;2022-08-16T03:54:48;11.77;;;7.63;;
10244;SDS011;5167;52.164;10.530;2022-08-16T03:57:13;10.32;;;7.80;;
10244;SDS011;5167;52.164;10.530;2022-08-16T03:59:40;10.40;;;7.95;;
10244;SDS011;5167;52.164;10.530;2022-08-16T04:02:05;9.52;;;7.43;;
10244;SDS011;5167;52.164;10.530;2022-08-16T04:04:32;11.73;;;7.90;;
10244;SDS011;5167;52.164;10.530;2022-08-16T04:07:00;11.65;;;7.97;;
10244;SDS011;5167;52.164;10.530;2022-08-16T04:09:28;11.52;;;6.82;;
10244;SDS011;5167;52.164;10.530;2022-08-16T04:11:57;10.20;;;8.02;;
10244;SDS011;5167;52.164;10.530;2022-08-16T04:14:23;12.80;;;7.30;;
10244;SDS011;5167;52.164;10.530;2022-08-16T04:16:48;9.82;;;7.97;;
10244;SDS011;5167;52.164;10.530;2022-08-16T04:19:14;10.57;;;7.65;;
10244;SDS011;5167;52.164;10.530;2022-08-16T04:21:40;7.93;;;6.63;;
10244;SDS011;5167;52.164;10.530;2022-08-16T04:24:05;11.88;;;7.38;;
10244;SDS011;5167;52.164;10.530;2022-08-16T04:26:31;10.10;;;7.60;;
10244;SDS011;5167;52.164;10.530;2022-08-16T04:28:57;10.98;;;6.95;;
10244;SDS011;5167;52.164;10.530;2022-08-16T04:31:24;8.77;;;7.07;;
10244;SDS011;5167;52.164;10.530;2022-08-16T04:33:50;13.32;;;7.07;;
10244;SDS011;5167;52.164;10.530;2022-08-16T04:36:17;10.43;;;7.40;;
10244;SDS011;5167;52.164;10.530;2022-08-16T04:38:43;10.48;;;7.05;;
10244;SDS011;5167;52.164;10.530;2022-08-16T04:41:09;9.57;;;7.45;;
10244;SDS011;5167;52.164;10.530;2022-08-16T04:43:34;32.40;;;11.07;;
10244;SDS011;5167;52.164;10.530;2022-08-16T04:46:02;8.57;;;7.03;;
10244;SDS011;5167;52.164;10.530;2022-08-16T04:48:28;12.43;;;7.07;;
10244;SDS011;5167;52.164;10.530;2022-08-16T04:50:54;10.52;;;6.32;;
10244;SDS011;5167;52.164;10.530;2022-08-16T04:53:20;8.00;;;6.20;;
10244;SDS011;5167;52.164;10.530;2022-08-16T04:55:45;12.98;;;6.65;;
10244;SDS011;5167;52.164;10.530;2022-08-16T04:58:11;12.15;;;6.68;;
10244;SDS011;5167;52.164;10.530;2022-08-16T05:00:37;9.35;;;6.40;;
10244;SDS011;5167;52.164;10.530;2022-08-16T05:03:07;8.18;;;6.03;;
10244;SDS011;5167;52.164;10.530;2022-08-16T05:05:34;11.38;;;7.28;;
10244;SDS011;5167;52.164;10.530;2022-08-16T05:08:01;11.25;;;6.18;;
10244;SDS011;5167;52.164;10.530;2022-08-16T05:10:27;8.77;;;6.57;;
10244;SDS011;5167;52.164;10.530;2022-08-16T05:12:53;9.82;;;6.30;;
10244;SDS011;5167;52.164;10.530;2022-08-16T05:15:19;8.32;;;5.93;;
10244;SDS011;5167;52.164;10.530;2022-08-16T05:17:44;7.90;;;6.30;;
10244;SDS011;5167;52.164;10.530;2022-08-16T05:20:10;12.50;;;6.60;;
10244;SDS011;5167;52.164;10.530;2022-08-16T05:22:36;9.68;;;6.65;;
10244;SDS011;5167;52.164;10.530;2022-08-16T05:25:03;10.25;;;6.47;;
10244;SDS011;5167;52.164;10.530;2022-08-16T05:27:30;10.77;;;7.20;;
10244;SDS011;5167;52.164;10.530;2022-08-16T05:29:55;11.95;;;6.30;;
10244;SDS011;5167;52.164;10.530;2022-08-16T05:32:21;9.55;;;5.88;;
10244;SDS011;5167;52.164;10.530;2022-08-16T05:34:47;9.30;;;5.55;;
10244;SDS011;5167;52.164;10.530;2022-08-16T05:37:12;14.93;;;7.57;;
10244;SDS011;5167;52.164;10.530;2022-08-16T05:39:38;10.82;;;7.22;;
10244;SDS011;5167;52.164;10.530;2022-08-16T05:42:04;13.82;;;7.65;;
10244;SDS011;5167;52.164;10.530;2022-08-16T05:44:30;9.13;;;6.90;;
10244;SDS011;5167;52.164;10.530;2022-08-16T05:46:56;7.40;;;6.55;;
10244;SDS011;5167;52.164;10.530;2022-08-16T05:49:25;9.32;;;5.80;;
10244;SDS011;5167;52.164;10.530;2022-08-16T05:51:52;10.98;;;6.60;;
10244;SDS011;5167;52.164;10.530;2022-08-16T05:54:19;12.60;;;6.82;;
10244;SDS011;5167;52.164;10.530;2022-08-16T05:56:46;9.18;;;6.60;;
10244;SDS011;5167;52.164;10.530;2022-08-16T05:59:12;7.10;;;5.70;;
10244;SDS011;5167;52.164;10.530;2022-08-16T06:01:39;10.48;;;6.07;;
10244;SDS011;5167;52.164;10.530;2022-08-16T06:04:06;7.28;;;5.80;;
10244;SDS011;5167;52.164;10.530;2022-08-16T06:06:32;15.25;;;6.07;;
10244;SDS011;5167;52.164;10.530;2022-08-16T06:08:58;9.90;;;6.40;;
10244;SDS011;5167;52.164;10.530;2022-08-16T06:11:24;8.60;;;7.07;;
10244;SDS011;5167;52.164;10.530;2022-08-16T06:13:49;10.27;;;6.38;;
10244;SDS011;5167;52.164;10.530;2022-08-16T06:16:15;8.77;;;5.95;;
10244;SDS011;5167;52.164;10.530;2022-08-16T06:18:40;10.50;;;6.72;;
10244;SDS011;5167;52.164;10.530;2022-08-16T06:21:09;8.88;;;6.15;;
10244;SDS011;5167;52.164;10.530;2022-08-16T06:23:35;12.75;;;6.22;;
10244;SDS011;5167;52.164;10.530;2022-08-16T06:26:00;11.73;;;6.32;;
10244;SDS011;5167;52.164;10.530;2022-08-16T06:28:26;10.07;;;6.38;;
10244;SDS011;5167;52.164;10.530;2022-08-16T06:30:52;6.47;;;5.53;;
10244;SDS011;5167;52.164;10.530;2022-08-16T06:33:18;9.80;;;5.63;;
10244;SDS011;5167;52.164;10.530;2022-08-16T06:35:43;12.13;;;6.07;;
10244;SDS011;5167;52.164;10.530;2022-08-16T06:38:10;9.18;;;5.18;;
10244;SDS011;5167;52.164;10.530;2022-08-16T06:40:36;6.05;;;5.10;;
10244;SDS011;5167;52.164;10.530;2022-08-16T06:43:02;7.45;;;5.78;;
10244;SDS011;5167;52.164;10.530;2022-08-16T06:45:28;10.00;;;5.57;;
10244;SDS011;5167;52.164;10.530;2022-08-16T06:47:54;6.28;;;5.07;;
10244;SDS011;5167;52.164;10.530;2022-08-16T06:50:20;7.55;;;4.82;;
10244;SDS011;5167;52.164;10.530;2022-08-16T06:52:46;7.30;;;4.80;;
10244;SDS011;5167;52.164;10.530;2022-08-16T06:55:12;8.75;;;4.35;;
10244;SDS011;5167;52.164;10.530;2022-08-16T06:57:40;7.15;;;4.72;;
10244;SDS011;5167;52.164;10.530;2022-08-16T07:00:07;5.25;;;4.20;;
10244;SDS011;5167;52.164;10.530;2022-08-16T07:02:38;5.57;;;4.03;;
10244;SDS011;5167;52.164;10.530;2022-08-16T07:05:05;5.60;;;3.63;;
10244;SDS011;5167;52.164;10.530;2022-08-16T07:07:32;5.07;;;3.95;;
10244;SDS011;5167;52.164;10.530;2022-08-16T07:09:58;11.00;;;4.50;;
10244;SDS011;5167;52.164;10.530;2022-08-16T07:12:23;6.45;;;3.92;;
10244;SDS011;5167;52.164;10.530;2022-08-16T07:14:49;7.10;;;3.30;;
10244;SDS011;5167;52.164;10.530;2022-08-16T07:17:14;3.70;;;3.13;;
10244;SDS011;5167;52.164;10.530;2022-08-16T07:19:43;5.25;;;3.75;;
10244;SDS011;5167;52.164;10.530;2022-08-16T07:22:09;4.72;;;3.33;;
10244;SDS011;5167;52.164;10.530;2022-08-16T07:24:35;3.38;;;3.08;;
10244;SDS011;5167;52.164;10.530;2022-08-16T07:27:01;4.07;;;3.72;;
10244;SDS011;5167;52.164;10.530;2022-08-16T07:29:27;3.85;;;3.15;;
10244;SDS011;5167;52.164;10.530;2022-08-16T07:31:54;7.88;;;3.03;;
10244;SDS011;5167;52.164;10.530;2022-08-16T07:34:20;6.65;;;3.45;;
10244;SDS011;5167;52.164;10.530;2022-08-16T07:36:46;6.85;;;3.35;;
10244;SDS011;5167;52.164;10.530;2022-08-16T07:39:12;5.07;;;3.33;;
10244;SDS011;5167;52.164;10.530;2022-08-16T07:41:39;5.35;;;3.50;;
10244;SDS011;5167;52.164;10.530;2022-08-16T07:44:05;5.63;;;3.00;;
10244;SDS011;5167;52.164;10.530;2022-08-16T07:46:31;8.07;;;3.00;;
10244;SDS011;5167;52.164;10.530;2022-08-16T07:48:56;7.45;;;3.78;;
10244;SDS011;5167;52.164;10.530;2022-08-16T07:51:25;5.53;;;3.45;;
10244;SDS011;5167;52.164;10.530;2022-08-16T07:53:51;6.53;;;3.10;;
10244;SDS011;5167;52.164;10.530;2022-08-16T07:56:17;5.75;;;3.08;;
10244;SDS011;5167;52.164;10.530;2022-08-16T07:58:43;3.70;;;3.40;;
10244;SDS011;5167;52.164;10.530;2022-08-16T08:01:09;10.07;;;3.70;;
10244;SDS011;5167;52.164;10.530;2022-08-16T08:03:35;5.13;;;3.22;;
10244;SDS011;5167;52.164;10.530;2022-08-16T08:06:01;5.40;;;2.80;;
10244;SDS011;5167;52.164;10.530;2022-08-16T08:08:27;3.80;;;3.17;;
10244;SDS011;5167;52.164;10.530;2022-08-16T08:10:54;13.82;;;3.30;;
10244;SDS011;5167;52.164;10.530;2022-08-16T08:13:20;6.75;;;3.45;;
10244;SDS011;5167;52.164;10.530;2022-08-16T08:15:46;4.40;;;2.90;;
10244;SDS011;5167;52.164;10.530;2022-08-16T08:18:12;6.15;;;3.13;;
10244;SDS011;5167;52.164;10.530;2022-08-16T08:20:38;3.92;;;2.90;;
10244;SDS011;5167;52.164;10.530;2022-08-16T08:23:09;4.75;;;3.38;;
10244;SDS011;5167;52.164;10.530;2022-08-16T08:25:37;8.20;;;3.03;;
10244;SDS011;5167;52.164;10.530;2022-08-16T08:28:03;4.05;;;2.70;;
10244;SDS011;5167;52.164;10.530;2022-08-16T08:30:29;5.35;;;3.35;;
10244;SDS011;5167;52.164;10.530;2022-08-16T08:32:55;6.82;;;2.88;;
10244;SDS011;5167;52.164;10.530;2022-08-16T08:35:21;2.88;;;2.67;;
10244;SDS011;5167;52.164;10.530;2022-08-16T08:37:47;5.82;;;3.17;;
10244;SDS011;5167;52.164;10.530;2022-08-16T08:40:12;6.30;;;2.90;;
10244;SDS011;5167;52.164;10.530;2022-08-16T08:42:38;4.57;;;3.13;;
10244;SDS011;5167;52.164;10.530;2022-08-16T08:45:08;4.90;;;3.28;;
10244;SDS011;5167;52.164;10.530;2022-08-16T08:47:35;3.25;;;2.67;;
10244;SDS011;5167;52.164;10.530;2022-08-16T08:50:02;3.78;;;2.42;;
10244;SDS011;5167;52.164;10.530;2022-08-16T08:52:29;4.25;;;2.78;;
10244;SDS011;5167;52.164;10.530;2022-08-16T08:54:54;4.97;;;3.05;;
10244;SDS011;5167;52.164;10.530;2022-08-16T08:57:20;10.65;;;3.03;;
10244;SDS011;5167;52.164;10.530;2022-08-16T08:59:46;4.88;;;2.78;;
10244;SDS011;5167;52.164;10.530;2022-08-16T09:02:12;8.10;;;3.30;;
10244;SDS011;5167;52.164;10.530;2022-08-16T09:04:40;3.83;;;3.03;;
10244;SDS011;5167;52.164;10.530;2022-08-16T09:07:07;3.85;;;2.63;;
10244;SDS011;5167;52.164;10.530;2022-08-16T09:09:33;5.65;;;3.58;;
10244;SDS011;5167;52.164;10.530;2022-08-16T09:11:59;3.35;;;2.53;;
10244;SDS011;5167;52.164;10.530;2022-08-16T09:14:26;3.30;;;2.63;;
10244;SDS011;5167;52.164;10.530;2022-08-16T09:16:53;2.65;;;2.40;;
10244;SDS011;5167;52.164;10.530;2022-08-16T09:19:19;2.53;;;2.33;;
10244;SDS011;5167;52.164;10.530;2022-08-16T09:21:46;4.53;;;2.45;;
10244;SDS011;5167;52.164;10.530;2022-08-16T09:24:13;3.42;;;2.25;;
10244;SDS011;5167;52.164;10.530;2022-08-16T09:26:39;3.55;;;2.75;;
10244;SDS011;5167;52.164;10.530;2022-08-16T09:29:05;3.40;;;2.53;;
10244;SDS011;5167;52.164;10.530;2022-08-16T09:31:31;2.45;;;2.25;;
10244;SDS011;5167;52.164;10.530;2022-08-16T09:33:57;2.05;;;1.95;;
10244;SDS011;5167;52.164;10.530;2022-08-16T09:36:22;5.03;;;2.28;;
10244;SDS011;5167;52.164;10.530;2022-08-16T09:38:48;3.53;;;2.40;;
10244;SDS011;5167;52.164;10.530;2022-08-16T09:41:14;2.15;;;2.03;;
10244;SDS011;5167;52.164;10.530;2022-08-16T09:43:41;2.72;;;2.13;;
10244;SDS011;5167;52.164;10.530;2022-08-16T09:46:08;3.92;;;2.30;;
10244;SDS011;5167;52.164;10.530;2022-08-16T09:48:35;4.22;;;2.40;;
10244;SDS011;5167;52.164;10.530;2022-08-16T09:51:03;3.90;;;2.00;;
10244;SDS011;5167;52.164;10.530;2022-08-16T09:53:29;2.38;;;2.17;;
10244;SDS011;5167;52.164;10.530;2022-08-16T09:55:56;4.13;;;2.25;;
10244;SDS011;5167;52.164;10.530;2022-08-16T09:58:23;3.50;;;2.42;;
10244;SDS011;5167;52.164;10.530;2022-08-16T10:00:51;3.33;;;2.10;;
10244;SDS011;5167;52.164;10.530;2022-08-16T10:03:18;3.53;;;2.30;;
10244;SDS011;5167;52.164;10.530;2022-08-16T10:05:44;3.05;;;2.20;;
10244;SDS011;5167;52.164;10.530;2022-08-16T10:08:11;3.65;;;2.40;;
10244;SDS011;5167;52.164;10.530;2022-08-16T10:10:37;3.25;;;2.33;;
10244;SDS011;5167;52.164;10.530;2022-08-16T10:13:05;4.13;;;2.70;;
10244;SDS011;5167;52.164;10.530;2022-08-16T10:15:40;3.15;;;2.35;;
10244;SDS011;5167;52.164;10.530;2022-08-16T10:18:07;3.25;;;2.25;;
10244;SDS011;5167;52.164;10.530;2022-08-16T10:20:38;2.40;;;2.20;;
10244;SDS011;5167;52.164;10.530;2022-08-16T10:23:07;2.63;;;2.38;;
10244;SDS011;5167;52.164;10.530;2022-08-16T10:25:36;2.55;;;2.35;;
10244;SDS011;5167;52.164;10.530;2022-08-16T10:28:04;8.75;;;2.60;;
10244;SDS011;5167;52.164;10.530;2022-08-16T10:30:31;3.15;;;2.50;;
10244;SDS011;5167;52.164;10.530;2022-08-16T10:32:56;4.75;;;2.17;;
10244;SDS011;5167;52.164;10.530;2022-08-16T10:35:22;2.83;;;2.35;;
10244;SDS011;5167;52.164;10.530;2022-08-16T10:37:48;4.43;;;2.25;;
10244;SDS011;5167;52.164;10.530;2022-08-16T10:40:15;4.18;;;2.55;;
10244;SDS011;5167;52.164;10.530;2022-08-16T10:42:41;2.40;;;2.20;;
10244;SDS011;5167;52.164;10.530;2022-08-16T10:45:06;4.25;;;2.42;;
10244;SDS011;5167;52.164;10.530;2022-08-16T10:47:33;2.88;;;1.92;;
10244;SDS011;5167;52.164;10.530;2022-08-16T10:49:59;4.95;;;2.40;;
10244;SDS011;5167;52.164;10.530;2022-08-16T10:52:25;2.28;;;2.08;;
10244;SDS011;5167;52.164;10.530;2022-08-16T10:54:51;2.35;;;2.10;;
10244;SDS011;5167;52.164;10.530;2022-08-16T10:57:17;4.45;;;2.35;;
10244;SDS011;5167;52.164;10.530;2022-08-16T10:59:42;2.30;;;2.10;;
10244;SDS011;5167;52.164;10.530;2022-08-16T11:02:08;8.63;;;2.05;;
10244;SDS011;5167;52.164;10.530;2022-08-16T11:04:35;2.25;;;2.05;;
10244;SDS011;5167;52.164;10.530;2022-08-16T11:07:01;4.10;;;2.10;;
10244;SDS011;5167;52.164;10.530;2022-08-16T11:09:28;2.75;;;2.28;;
10244;SDS011;5167;52.164;10.530;2022-08-16T11:11:53;4.22;;;2.60;;
10244;SDS011;5167;52.164;10.530;2022-08-16T11:14:19;7.00;;;2.63;;
10244;SDS011;5167;52.164;10.530;2022-08-16T11:16:44;6.10;;;2.90;;
10244;SDS011;5167;52.164;10.530;2022-08-16T11:19:10;3.15;;;2.40;;
10244;SDS011;5167;52.164;10.530;2022-08-16T11:21:36;4.55;;;2.92;;
10244;SDS011;5167;52.164;10.530;2022-08-16T11:24:02;3.55;;;3.00;;
10244;SDS011;5167;52.164;10.530;2022-08-16T11:26:28;4.03;;;2.75;;
10244;SDS011;5167;52.164;10.530;2022-08-16T11:28:54;4.90;;;2.63;;
10244;SDS011;5167;52.164;10.530;2022-08-16T11:31:21;3.55;;;2.33;;
10244;SDS011;5167;52.164;10.530;2022-08-16T11:33:48;4.07;;;3.05;;
10244;SDS011;5167;52.164;10.530;2022-08-16T11:36:14;2.38;;;2.10;;
10244;SDS011;5167;52.164;10.530;2022-08-16T11:38:39;4.88;;;2.42;;
10244;SDS011;5167;52.164;10.530;2022-08-16T11:41:05;5.85;;;2.45;;
10244;SDS011;5167;52.164;10.530;2022-08-16T11:43:33;5.43;;;2.35;;
10244;SDS011;5167;52.164;10.530;2022-08-16T11:46:02;8.07;;;2.75;;
10244;SDS011;5167;52.164;10.530;2022-08-16T11:48:30;6.28;;;2.40;;
10244;SDS011;5167;52.164;10.530;2022-08-16T11:50:57;2.30;;;2.08;;
10244;SDS011;5167;52.164;10.530;2022-08-16T11:53:24;5.18;;;2.63;;
10244;SDS011;5167;52.164;10.530;2022-08-16T11:55:52;3.70;;;2.58;;
10244;SDS011;5167;52.164;10.530;2022-08-16T11:58:19;7.72;;;2.67;;
10244;SDS011;5167;52.164;10.530;2022-08-16T12:00:45;5.93;;;2.20;;
10244;SDS011;5167;52.164;10.530;2022-08-16T12:03:12;4.47;;;2.10;;
10244;SDS011;5167;52.164;10.530;2022-08-16T12:05:39;2.88;;;2.35;;
10244;SDS011;5167;52.164;10.530;2022-08-16T12:08:06;7.93;;;2.10;;
10244;SDS011;5167;52.164;10.530;2022-08-16T12:10:34;3.70;;;2.38;;
10244;SDS011;5167;52.164;10.530;2022-08-16T12:13:00;5.85;;;2.35;;
10244;SDS011;5167;52.164;10.530;2022-08-16T12:15:26;3.15;;;2.42;;
10244;SDS011;5167;52.164;10.530;2022-08-16T12:17:52;3.10;;;2.63;;
10244;SDS011;5167;52.164;10.530;2022-08-16T12:20:20;4.90;;;2.25;;
10244;SDS011;5167;52.164;10.530;2022-08-16T12:22:50;4.00;;;2.10;;
10244;SDS011;5167;52.164;10.530;2022-08-16T12:25:17;2.55;;;2.33;;
10244;SDS011;5167;52.164;10.530;2022-08-16T12:27:44;8.00;;;2.85;;
10244;SDS011;5167;52.164;10.530;2022-08-16T12:30:12;4.93;;;2.65;;
10244;SDS011;5167;52.164;10.530;2022-08-16T12:32:41;3.22;;;2.45;;
10244;SDS011;5167;52.164;10.530;2022-08-16T12:35:09;8.15;;;3.08;;
10244;SDS011;5167;52.164;10.530;2022-08-16T12:37:37;1.98;;;1.88;;
10244;SDS011;5167;52.164;10.530;2022-08-16T12:40:04;6.00;;;2.38;;
10244;SDS011;5167;52.164;10.530;2022-08-16T12:42:32;2.78;;;2.20;;
10244;SDS011;5167;52.164;10.530;2022-08-16T12:44:58;3.40;;;2.70;;
10244;SDS011;5167;52.164;10.530;2022-08-16T12:47:32;3.05;;;2.30;;
10244;SDS011;5167;52.164;10.530;2022-08-16T12:50:16;3.50;;;2.40;;
10244;SDS011;5167;52.164;10.530;2022-08-16T12:52:42;4.68;;;2.17;;
10244;SDS011;5167;52.164;10.530;2022-08-16T12:55:07;5.90;;;2.53;;
10244;SDS011;5167;52.164;10.530;2022-08-16T12:57:35;4.57;;;2.38;;
10244;SDS011;5167;52.164;10.530;2022-08-16T13:00:03;3.65;;;2.30;;
10244;SDS011;5167;52.164;10.530;2022-08-16T13:02:31;3.08;;;2.78;;
10244;SDS011;5167;52.164;10.530;2022-08-16T13:04:57;2.75;;;2.30;;
10244;SDS011;5167;52.164;10.530;2022-08-16T13:07:22;3.85;;;2.20;;
10244;SDS011;5167;52.164;10.530;2022-08-16T13:09:48;2.95;;;2.33;;
10244;SDS011;5167;52.164;10.530;2022-08-16T13:12:21;5.75;;;2.20;;
10244;SDS011;5167;52.164;10.530;2022-08-16T13:14:50;5.40;;;2.80;;
10244;SDS011;5167;52.164;10.530;2022-08-16T13:17:18;2.83;;;2.17;;
10244;SDS011;5167;52.164;10.530;2022-08-16T13:19:49;3.03;;;2.50;;
10244;SDS011;5167;52.164;10.530;2022-08-16T13:22:16;6.47;;;2.40;;
10244;SDS011;5167;52.164;10.530;2022-08-16T13:24:42;5.20;;;2.53;;
10244;SDS011;5167;52.164;10.530;2022-08-16T13:27:08;3.38;;;2.45;;
10244;SDS011;5167;52.164;10.530;2022-08-16T13:29:34;5.38;;;2.65;;
10244;SDS011;5167;52.164;10.530;2022-08-16T13:31:59;5.78;;;3.35;;
10244;SDS011;5167;52.164;10.530;2022-08-16T13:34:25;3.53;;;2.50;;
10244;SDS011;5167;52.164;10.530;2022-08-16T13:36:51;3.38;;;2.95;;
10244;SDS011;5167;52.164;10.530;2022-08-16T13:39:16;8.75;;;2.70;;
10244;SDS011;5167;52.164;10.530;2022-08-16T13:41:42;4.93;;;3.20;;
10244;SDS011;5167;52.164;10.530;2022-08-16T13:44:08;4.07;;;3.20;;
10244;SDS011;5167;52.164;10.530;2022-08-16T13:46:34;6.07;;;2.95;;
10244;SDS011;5167;52.164;10.530;2022-08-16T13:49:00;6.25;;;3.28;;
10244;SDS011;5167;52.164;10.530;2022-08-16T13:51:26;4.95;;;3.40;;
10244;SDS011;5167;52.164;10.530;2022-08-16T13:53:54;5.03;;;3.85;;
10244;SDS011;5167;52.164;10.530;2022-08-16T13:56:21;4.30;;;3.90;;
10244;SDS011;5167;52.164;10.530;2022-08-16T13:58:48;3.03;;;2.72;;
10244;SDS011;5167;52.164;10.530;2022-08-16T14:01:14;3.35;;;2.92;;
10244;SDS011;5167;52.164;10.530;2022-08-16T14:03:41;3.13;;;2.70;;
10244;SDS011;5167;52.164;10.530;2022-08-16T14:06:07;4.13;;;2.30;;
10244;SDS011;5167;52.164;10.530;2022-08-16T14:08:34;3.35;;;2.72;;
10244;SDS011;5167;52.164;10.530;2022-08-16T14:11:00;3.38;;;2.65;;
10244;SDS011;5167;52.164;10.530;2022-08-16T14:13:26;3.95;;;3.33;;
10244;SDS011;5167;52.164;10.530;2022-08-16T14:15:51;3.67;;;3.20;;
10244;SDS011;5167;52.164;10.530;2022-08-16T14:18:17;4.15;;;2.53;;
10244;SDS011;5167;52.164;10.530;2022-08-16T14:20:42;4.53;;;3.08;;
10244;SDS011;5167;52.164;10.530;2022-08-16T14:23:08;5.05;;;2.70;;
10244;SDS011;5167;52.164;10.530;2022-08-16T14:25:34;7.75;;;5.70;;
10244;SDS011;5167;52.164;10.530;2022-08-16T14:27:59;3.45;;;3.15;;
10244;SDS011;5167;52.164;10.530;2022-08-16T14:30:25;6.38;;;3.60;;
10244;SDS011;5167;52.164;10.530;2022-08-16T14:32:51;3.33;;;2.60;;
10244;SDS011;5167;52.164;10.530;2022-08-16T14:35:19;3.75;;;2.75;;
10244;SDS011;5167;52.164;10.530;2022-08-16T14:37:47;3.35;;;2.70;;
10244;SDS011;5167;52.164;10.530;2022-08-16T14:40:14;4.53;;;3.92;;